sensor_id;sensor_type;location;lat;lon;timestamp;pressure;altitude;pressure_sealevel;temperature;humidity
79127;BME280;68528;48.814;8.904;2023-04-24T00:01:30;95397.44;;;9.13;77.35
79127;BME280;68528;48.814;8.904;2023-04-24T00:03:56;95398.66;;;9.19;76.93
79127;BME280;68528;48.814;8.904;2023-04-24T00:06:26;95389.66;;;9.15;77.56
79127;BME280;68528;48.814;8.904;2023-04-24T00:08:58;95394.38;;;9.18;77.45
79127;BME280;68528;48.814;8.904;2023-04-24T00:11:24;95404.13;;;9.19;76.97
79127;BME280;68528;48.814;8.904;2023-04-24T00:13:55;95402.97;;;9.24;76.86
79127;BME280;68528;48.814;8.904;2023-04-24T00:16:56;95417.84;;;9.26;76.57
79127;BME280;68528;48.814;8.904;2023-04-24T00:19:22;95415.50;;;9.28;76.90
79127;BME280;68528;48.814;8.904;2023-04-24T00:21:52;95410.03;;;9.25;77.08
79127;BME280;68528;48.814;8.904;2023-04-24T00:24:17;95400.25;;;9.27;76.89
79127;BME280;68528;48.814;8.904;2023-04-24T00:26:44;95406.91;;;9.26;76.81
79127;BME280;68528;48.814;8.904;2023-04-24T00:29:10;95404.53;;;9.21;77.30
79127;BME280;68528;48.814;8.904;2023-04-24T00:31:35;95402.22;;;9.27;76.66
79127;BME280;68528;48.814;8.904;2023-04-24T00:34:01;95408.44;;;9.20;77.14
79127;BME280;68528;48.814;8.904;2023-04-24T00:36:29;95406.50;;;9.24;77.17
79127;BME280;68528;48.814;8.904;2023-04-24T00:38:56;95400.63;;;9.22;76.96
79127;BME280;68528;48.814;8.904;2023-04-24T00:41:21;95398.31;;;9.24;76.83
79127;BME280;68528;48.814;8.904;2023-04-24T00:43:47;95398.31;;;9.24;77.16
79127;BME280;68528;48.814;8.904;2023-04-24T00:46:22;95405.72;;;9.27;76.33
79127;BME280;68528;48.814;8.904;2023-04-24T00:48:47;95404.53;;;9.21;77.15
79127;BME280;68528;48.814;8.904;2023-04-24T00:51:13;95396.38;;;9.25;76.23
79127;BME280;68528;48.814;8.904;2023-04-24T00:53:38;95387.78;;;9.26;76.69
79127;BME280;68528;48.814;8.904;2023-04-24T00:56:04;95402.25;;;9.30;76.65
79127;BME280;68528;48.814;8.904;2023-04-24T00:58:31;95398.25;;;9.21;77.02
79127;BME280;68528;48.814;8.904;2023-04-24T01:00:57;95394.78;;;9.20;77.15
79127;BME280;68528;48.814;8.904;2023-04-24T01:03:27;95390.84;;;9.21;76.69
79127;BME280;68528;48.814;8.904;2023-04-24T01:05:54;95403.78;;;9.24;76.62
79127;BME280;68528;48.814;8.904;2023-04-24T01:08:20;95394.00;;;9.23;76.79
79127;BME280;68528;48.814;8.904;2023-04-24T01:10:53;95384.59;;;9.21;77.19
79127;BME280;68528;48.814;8.904;2023-04-24T01:13:19;95379.13;;;9.21;76.80
79127;BME280;68528;48.814;8.904;2023-04-24T01:15:46;95373.59;;;9.10;77.50
79127;BME280;68528;48.814;8.904;2023-04-24T01:18:12;95379.81;;;9.04;77.45
79127;BME280;68528;48.814;8.904;2023-04-24T01:20:40;95375.50;;;8.99;77.75
79127;BME280;68528;48.814;8.904;2023-04-24T01:23:08;95370.75;;;8.93;78.25
79127;BME280;68528;48.814;8.904;2023-04-24T01:25:34;95364.09;;;8.87;78.55
79127;BME280;68528;48.814;8.904;2023-04-24T01:28:00;95369.97;;;8.92;78.28
79127;BME280;68528;48.814;8.904;2023-04-24T01:30:26;95365.69;;;8.91;78.31
79127;BME280;68528;48.814;8.904;2023-04-24T01:32:53;95355.16;;;8.93;78.51
79127;BME280;68528;48.814;8.904;2023-04-24T01:35:20;95366.81;;;8.87;78.60
79127;BME280;68528;48.814;8.904;2023-04-24T01:37:47;95365.69;;;8.91;78.63
79127;BME280;68528;48.814;8.904;2023-04-24T01:40:12;95367.22;;;8.89;78.34
79127;BME280;68528;48.814;8.904;2023-04-24T01:42:41;95364.44;;;8.85;79.35
79127;BME280;68528;48.814;8.904;2023-04-24T01:45:10;95369.13;;;8.85;79.08
79127;BME280;68528;48.814;8.904;2023-04-24T01:47:36;95365.28;;;8.93;78.90
79127;BME280;68528;48.814;8.904;2023-04-24T01:50:03;95361.31;;;8.83;79.16
79127;BME280;68528;48.814;8.904;2023-04-24T01:52:30;95355.44;;;8.81;79.87
79127;BME280;68528;48.814;8.904;2023-04-24T01:54:59;95351.16;;;8.80;79.57
79127;BME280;68528;48.814;8.904;2023-04-24T01:57:25;95357.41;;;8.81;79.98
79127;BME280;68528;48.814;8.904;2023-04-24T01:59:52;95366.03;;;8.86;79.49
79127;BME280;68528;48.814;8.904;2023-04-24T02:02:17;95357.41;;;8.81;80.05
79127;BME280;68528;48.814;8.904;2023-04-24T02:04:46;95359.75;;;8.82;80.00
79127;BME280;68528;48.814;8.904;2023-04-24T02:07:12;95372.19;;;8.80;80.34
79127;BME280;68528;48.814;8.904;2023-04-24T02:09:39;95366.03;;;8.86;79.89
79127;BME280;68528;48.814;8.904;2023-04-24T02:12:06;95362.81;;;8.77;80.69
79127;BME280;68528;48.814;8.904;2023-04-24T02:14:31;95360.50;;;8.79;81.06
79127;BME280;68528;48.814;8.904;2023-04-24T02:16:58;95360.56;;;8.86;81.11
79127;BME280;68528;48.814;8.904;2023-04-24T02:19:23;95371.16;;;8.91;81.15
79127;BME280;68528;48.814;8.904;2023-04-24T02:21:50;95373.09;;;8.91;81.35
79127;BME280;68528;48.814;8.904;2023-04-24T02:24:19;95379.75;;;8.93;81.73
79127;BME280;68528;48.814;8.904;2023-04-24T02:26:44;95376.16;;;8.86;82.52
79127;BME280;68528;48.814;8.904;2023-04-24T02:29:09;95388.19;;;8.81;83.75
79127;BME280;68528;48.814;8.904;2023-04-24T02:31:35;95381.53;;;8.75;83.64
79127;BME280;68528;48.814;8.904;2023-04-24T02:34:01;95377.19;;;8.70;84.12
79127;BME280;68528;48.814;8.904;2023-04-24T02:36:27;95375.66;;;8.73;84.25
79127;BME280;68528;48.814;8.904;2023-04-24T02:38:53;95366.56;;;8.62;85.89
79127;BME280;68528;48.814;8.904;2023-04-24T02:41:24;95370.47;;;8.61;86.17
79127;BME280;68528;48.814;8.904;2023-04-24T02:43:49;95374.41;;;8.63;86.09
79127;BME280;68528;48.814;8.904;2023-04-24T02:46:15;95368.13;;;8.59;86.48
79127;BME280;68528;48.814;8.904;2023-04-24T02:48:42;95367.19;;;8.45;87.17
79127;BME280;68528;48.814;8.904;2023-04-24T02:51:08;95364.06;;;8.43;86.96
79127;BME280;68528;48.814;8.904;2023-04-24T02:53:33;95367.16;;;8.38;86.86
79127;BME280;68528;48.814;8.904;2023-04-24T02:55:59;95365.50;;;8.30;87.33
79127;BME280;68528;48.814;8.904;2023-04-24T02:58:24;95356.00;;;8.20;87.87
79127;BME280;68528;48.814;8.904;2023-04-24T03:00:53;95362.25;;;8.21;87.71
79127;BME280;68528;48.814;8.904;2023-04-24T03:03:19;95362.16;;;8.14;87.73
79127;BME280;68528;48.814;8.904;2023-04-24T03:05:45;95362.16;;;8.10;88.33
79127;BME280;68528;48.814;8.904;2023-04-24T03:08:10;95357.41;;;8.04;88.38
79127;BME280;68528;48.814;8.904;2023-04-24T03:10:36;95359.63;;;7.94;89.13
79127;BME280;68528;48.814;8.904;2023-04-24T03:13:03;95350.75;;;8.01;88.76
79127;BME280;68528;48.814;8.904;2023-04-24T03:15:29;95350.34;;;7.99;88.68
79127;BME280;68528;48.814;8.904;2023-04-24T03:17:54;95344.03;;;7.91;88.77
79127;BME280;68528;48.814;8.904;2023-04-24T03:20:20;95345.56;;;7.92;88.50
79127;BME280;68528;48.814;8.904;2023-04-24T03:22:46;95344.78;;;7.92;88.63
79127;BME280;68528;48.814;8.904;2023-04-24T03:25:12;95337.00;;;7.90;88.75
79127;BME280;68528;48.814;8.904;2023-04-24T03:27:37;95339.31;;;7.88;88.09
79127;BME280;68528;48.814;8.904;2023-04-24T03:30:05;95339.63;;;7.83;88.74
79127;BME280;68528;48.814;8.904;2023-04-24T03:32:32;95339.97;;;7.78;88.73
79127;BME280;68528;48.814;8.904;2023-04-24T03:34:58;95341.47;;;7.72;89.54
79127;BME280;68528;48.814;8.904;2023-04-24T03:37:24;95346.16;;;7.75;88.83
79127;BME280;68528;48.814;8.904;2023-04-24T03:39:49;95349.63;;;7.72;89.27
79127;BME280;68528;48.814;8.904;2023-04-24T03:42:15;95337.50;;;7.66;89.79
79127;BME280;68528;48.814;8.904;2023-04-24T03:44:40;95336.75;;;7.69;89.56
79127;BME280;68528;48.814;8.904;2023-04-24T03:47:06;95341.13;;;7.77;89.44
79127;BME280;68528;48.814;8.904;2023-04-24T03:49:31;95339.34;;;7.92;88.51
79127;BME280;68528;48.814;8.904;2023-04-24T03:51:56;95345.56;;;7.89;88.71
79127;BME280;68528;48.814;8.904;2023-04-24T03:54:22;95344.84;;;7.96;89.31
79127;BME280;68528;48.814;8.904;2023-04-24T03:56:47;95356.66;;;8.07;88.30
79127;BME280;68528;48.814;8.904;2023-04-24T03:59:13;95386.22;;;8.05;88.64
79127;BME280;68528;48.814;8.904;2023-04-24T04:01:38;95423.66;;;8.08;88.83
79127;BME280;68528;48.814;8.904;2023-04-24T04:04:07;95411.66;;;8.16;86.41
79127;BME280;68528;48.814;8.904;2023-04-24T04:06:33;95418.72;;;8.17;84.67
79127;BME280;68528;48.814;8.904;2023-04-24T04:08:59;95419.69;;;8.02;81.33
79127;BME280;68528;48.814;8.904;2023-04-24T04:11:25;95421.06;;;7.88;80.85
79127;BME280;68528;48.814;8.904;2023-04-24T04:13:50;95418.75;;;7.90;81.10
79127;BME280;68528;48.814;8.904;2023-04-24T04:16:19;95431.56;;;7.86;81.09
79127;BME280;68528;48.814;8.904;2023-04-24T04:18:46;95422.47;;;7.75;82.36
79127;BME280;68528;48.814;8.904;2023-04-24T04:21:12;95430.97;;;7.70;82.41
79127;BME280;68528;48.814;8.904;2023-04-24T04:23:49;95433.91;;;7.58;83.52
79127;BME280;68528;48.814;8.904;2023-04-24T04:26:17;95434.66;;;7.55;82.87
79127;BME280;68528;48.814;8.904;2023-04-24T04:29:03;95430.69;;;7.49;83.44
79127;BME280;68528;48.814;8.904;2023-04-24T04:31:28;95418.19;;;7.48;83.06
79127;BME280;68528;48.814;8.904;2023-04-24T04:33:54;95425.28;;;7.53;82.91
79127;BME280;68528;48.814;8.904;2023-04-24T04:36:20;95429.50;;;7.50;84.27
79127;BME280;68528;48.814;8.904;2023-04-24T04:38:52;95444.22;;;7.46;84.12
79127;BME280;68528;48.814;8.904;2023-04-24T04:41:20;95437.59;;;7.43;84.51
79127;BME280;68528;48.814;8.904;2023-04-24T04:43:46;95441.47;;;7.42;84.38
79127;BME280;68528;48.814;8.904;2023-04-24T04:46:12;95439.84;;;7.38;84.61
79127;BME280;68528;48.814;8.904;2023-04-24T04:48:38;95451.53;;;7.38;84.66
79127;BME280;68528;48.814;8.904;2023-04-24T04:51:03;95449.09;;;7.33;84.59
79127;BME280;68528;48.814;8.904;2023-04-24T04:53:49;95452.91;;;7.29;84.69
79127;BME280;68528;48.814;8.904;2023-04-24T04:56:14;95463.38;;;7.27;84.93
79127;BME280;68528;48.814;8.904;2023-04-24T04:58:40;95467.56;;;7.21;84.86
79127;BME280;68528;48.814;8.904;2023-04-24T05:01:05;95471.47;;;7.20;85.21
79127;BME280;68528;48.814;8.904;2023-04-24T05:03:34;95479.63;;;7.20;84.62
79127;BME280;68528;48.814;8.904;2023-04-24T05:06:02;95469.03;;;7.14;84.70
79127;BME280;68528;48.814;8.904;2023-04-24T05:08:31;95478.97;;;7.26;84.67
79127;BME280;68528;48.814;8.904;2023-04-24T05:10:56;95485.34;;;7.37;83.92
79127;BME280;68528;48.814;8.904;2023-04-24T05:13:22;95489.28;;;7.40;84.03
79127;BME280;68528;48.814;8.904;2023-04-24T05:15:47;95485.00;;;7.39;83.86
79127;BME280;68528;48.814;8.904;2023-04-24T05:18:13;95491.50;;;7.31;84.05
79127;BME280;68528;48.814;8.904;2023-04-24T05:20:38;95502.81;;;7.33;84.10
79127;BME280;68528;48.814;8.904;2023-04-24T05:23:04;95496.75;;;7.20;84.06
79127;BME280;68528;48.814;8.904;2023-04-24T05:25:31;95495.88;;;7.16;84.88
79127;BME280;68528;48.814;8.904;2023-04-24T05:28:00;95505.81;;;7.28;83.87
79127;BME280;68528;48.814;8.904;2023-04-24T05:30:26;95509.09;;;7.37;84.81
79127;BME280;68528;48.814;8.904;2023-04-24T05:32:51;95524.75;;;7.43;84.55
79127;BME280;68528;48.814;8.904;2023-04-24T05:35:17;95518.69;;;7.53;83.72
79127;BME280;68528;48.814;8.904;2023-04-24T05:37:43;95521.84;;;7.55;84.51
79127;BME280;68528;48.814;8.904;2023-04-24T05:40:10;95530.16;;;7.66;84.21
79127;BME280;68528;48.814;8.904;2023-04-24T05:42:36;95530.75;;;7.78;83.96
79127;BME280;68528;48.814;8.904;2023-04-24T05:45:02;95525.69;;;7.77;83.36
79127;BME280;68528;48.814;8.904;2023-04-24T05:47:28;95537.97;;;7.67;83.10
79127;BME280;68528;48.814;8.904;2023-04-24T05:49:53;95525.25;;;7.75;81.63
79127;BME280;68528;48.814;8.904;2023-04-24T05:52:19;95532.00;;;7.84;81.09
79127;BME280;68528;48.814;8.904;2023-04-24T05:54:45;95531.75;;;8.23;79.99
79127;BME280;68528;48.814;8.904;2023-04-24T05:57:10;95535.16;;;8.76;79.88
79127;BME280;68528;48.814;8.904;2023-04-24T05:59:37;95527.22;;;9.00;77.40
79127;BME280;68528;48.814;8.904;2023-04-24T06:02:04;95532.44;;;9.56;75.32
79127;BME280;68528;48.814;8.904;2023-04-24T06:04:29;95541.28;;;9.39;76.29
79127;BME280;68528;48.814;8.904;2023-04-24T06:06:55;95535.03;;;9.42;75.89
79127;BME280;68528;48.814;8.904;2023-04-24T06:09:22;95540.44;;;9.79;73.92
79127;BME280;68528;48.814;8.904;2023-04-24T06:11:49;95538.94;;;9.37;74.99
79127;BME280;68528;48.814;8.904;2023-04-24T06:14:17;95535.78;;;9.35;75.43
79127;BME280;68528;48.814;8.904;2023-04-24T06:16:43;95553.00;;;9.39;75.68
79127;BME280;68528;48.814;8.904;2023-04-24T06:19:09;95547.47;;;9.32;74.43
79127;BME280;68528;48.814;8.904;2023-04-24T06:21:36;95528.66;;;9.27;74.91
79127;BME280;68528;48.814;8.904;2023-04-24T06:24:03;95536.66;;;9.46;75.08
79127;BME280;68528;48.814;8.904;2023-04-24T06:26:30;95544.50;;;10.02;72.81
79127;BME280;68528;48.814;8.904;2023-04-24T06:28:55;95542.44;;;9.89;72.71
79127;BME280;68528;48.814;8.904;2023-04-24T06:31:21;95541.69;;;9.92;72.02
79127;BME280;68528;48.814;8.904;2023-04-24T06:33:48;95543.88;;;10.19;70.09
79127;BME280;68528;48.814;8.904;2023-04-24T06:41:53;95544.66;;;12.36;62.33
79127;BME280;68528;48.814;8.904;2023-04-24T06:44:54;95534.38;;;12.69;58.35
79127;BME280;68528;48.814;8.904;2023-04-24T06:47:40;95546.22;;;12.48;60.43
79127;BME280;68528;48.814;8.904;2023-04-24T06:50:07;95547.06;;;11.85;61.24
79127;BME280;68528;48.814;8.904;2023-04-24T06:52:32;95546.97;;;11.07;63.04
79127;BME280;68528;48.814;8.904;2023-04-24T06:55:23;95549.28;;;10.98;63.11
79127;BME280;68528;48.814;8.904;2023-04-24T06:57:50;95549.91;;;10.53;65.08
79127;BME280;68528;48.814;8.904;2023-04-24T07:00:22;95556.81;;;10.30;65.44
79127;BME280;68528;48.814;8.904;2023-04-24T07:02:58;95559.84;;;10.14;66.13
79127;BME280;68528;48.814;8.904;2023-04-24T07:05:23;95566.31;;;9.95;68.12
79127;BME280;68528;48.814;8.904;2023-04-24T07:07:52;95559.94;;;9.77;67.56
79127;BME280;68528;48.814;8.904;2023-04-24T07:10:18;95559.31;;;9.98;67.49
79127;BME280;68528;48.814;8.904;2023-04-24T07:12:43;95557.44;;;10.77;66.23
79127;BME280;68528;48.814;8.904;2023-04-24T07:15:47;95552.34;;;10.72;64.79
79127;BME280;68528;48.814;8.904;2023-04-24T07:18:43;95557.31;;;10.53;65.06
79127;BME280;68528;48.814;8.904;2023-04-24T07:21:48;95565.72;;;10.16;65.09
79127;BME280;68528;48.814;8.904;2023-04-24T07:24:14;95552.25;;;10.58;64.15
79127;BME280;68528;48.814;8.904;2023-04-24T07:26:42;95568.38;;;10.70;62.50
79127;BME280;68528;48.814;8.904;2023-04-24T07:29:08;95570.31;;;10.73;62.82
79127;BME280;68528;48.814;8.904;2023-04-24T07:31:34;95569.91;;;10.71;62.64
79127;BME280;68528;48.814;8.904;2023-04-24T07:34:04;95571.41;;;10.51;62.03
79127;BME280;68528;48.814;8.904;2023-04-24T07:40:06;95586.34;;;10.10;63.20
79127;BME280;68528;48.814;8.904;2023-04-24T07:42:39;95589.72;;;10.40;61.10
79127;BME280;68528;48.814;8.904;2023-04-24T07:45:20;95601.19;;;10.63;59.77
79127;BME280;68528;48.814;8.904;2023-04-24T07:51:39;95593.91;;;10.99;58.70
79127;BME280;68528;48.814;8.904;2023-04-24T07:54:13;95598.34;;;11.49;59.17
79127;BME280;68528;48.814;8.904;2023-04-24T07:56:43;95601.53;;;12.36;56.94
79127;BME280;68528;48.814;8.904;2023-04-24T07:59:09;95612.09;;;12.62;54.72
79127;BME280;68528;48.814;8.904;2023-04-24T08:01:35;95623.06;;;12.66;54.38
79127;BME280;68528;48.814;8.904;2023-04-24T08:04:00;95628.63;;;11.95;56.51
79127;BME280;68528;48.814;8.904;2023-04-24T08:06:26;95629.28;;;11.50;58.16
79127;BME280;68528;48.814;8.904;2023-04-24T08:08:55;95631.53;;;11.20;58.06
79127;BME280;68528;48.814;8.904;2023-04-24T08:11:21;95628.44;;;11.25;57.86
79127;BME280;68528;48.814;8.904;2023-04-24T08:17:10;95636.03;;;10.73;57.67
79127;BME280;68528;48.814;8.904;2023-04-24T08:29:20;95646.44;;;9.96;58.98
79127;BME280;68528;48.814;8.904;2023-04-24T08:31:51;95658.06;;;9.86;60.07
79127;BME280;68528;48.814;8.904;2023-04-24T08:34:22;95664.06;;;9.62;57.67
79127;BME280;68528;48.814;8.904;2023-04-24T08:36:48;95657.38;;;9.56;58.48
79127;BME280;68528;48.814;8.904;2023-04-24T08:39:15;95669.09;;;9.56;59.41
79127;BME280;68528;48.814;8.904;2023-04-24T08:41:43;95664.50;;;10.07;59.16
79127;BME280;68528;48.814;8.904;2023-04-24T08:44:11;95668.69;;;10.42;57.83
79127;BME280;68528;48.814;8.904;2023-04-24T08:47:03;95675.56;;;10.72;57.57
79127;BME280;68528;48.814;8.904;2023-04-24T08:49:31;95679.72;;;11.24;56.51
79127;BME280;68528;48.814;8.904;2023-04-24T08:52:18;95683.66;;;11.23;57.61
79127;BME280;68528;48.814;8.904;2023-04-24T08:54:46;95697.72;;;11.22;58.16
79127;BME280;68528;48.814;8.904;2023-04-24T08:57:14;95695.78;;;10.54;57.46
79127;BME280;68528;48.814;8.904;2023-04-24T08:59:44;95705.09;;;10.02;57.38
79127;BME280;68528;48.814;8.904;2023-04-24T09:02:11;95702.63;;;9.49;61.06
79127;BME280;68528;48.814;8.904;2023-04-24T09:04:37;95691.38;;;9.58;60.03
79127;BME280;68528;48.814;8.904;2023-04-24T09:07:03;95700.81;;;9.64;60.47
79127;BME280;68528;48.814;8.904;2023-04-24T09:09:32;95694.22;;;9.69;60.53
79127;BME280;68528;48.814;8.904;2023-04-24T09:11:58;95699.59;;;9.98;60.40
79127;BME280;68528;48.814;8.904;2023-04-24T09:14:24;95694.22;;;11.25;57.83
79127;BME280;68528;48.814;8.904;2023-04-24T09:16:51;95697.97;;;11.78;56.88
79127;BME280;68528;48.814;8.904;2023-04-24T09:19:18;95681.94;;;12.19;55.68
79127;BME280;68528;48.814;8.904;2023-04-24T09:28:35;95696.84;;;12.67;52.60
79127;BME280;68528;48.814;8.904;2023-04-24T09:31:22;95709.41;;;12.36;55.40
79127;BME280;68528;48.814;8.904;2023-04-24T09:33:59;95720.47;;;11.29;55.79
79127;BME280;68528;48.814;8.904;2023-04-24T09:36:35;95722.13;;;11.51;54.71
79127;BME280;68528;48.814;8.904;2023-04-24T09:39:08;95728.56;;;12.08;53.93
79127;BME280;68528;48.814;8.904;2023-04-24T09:41:44;95731.13;;;11.48;53.86
79127;BME280;68528;48.814;8.904;2023-04-24T09:44:13;95726.25;;;12.14;54.47
79127;BME280;68528;48.814;8.904;2023-04-24T09:47:16;95715.66;;;12.65;52.75
79127;BME280;68528;48.814;8.904;2023-04-24T09:53:16;95727.41;;;12.87;50.48
79127;BME280;68528;48.814;8.904;2023-04-24T10:03:11;95733.69;;;12.91;49.28
79127;BME280;68528;48.814;8.904;2023-04-24T10:06:15;95731.34;;;13.07;48.53
79127;BME280;68528;48.814;8.904;2023-04-24T10:08:40;95736.47;;;12.84;48.49
79127;BME280;68528;48.814;8.904;2023-04-24T10:11:07;95739.19;;;12.38;49.56
79127;BME280;68528;48.814;8.904;2023-04-24T10:13:33;95747.03;;;12.22;49.85
79127;BME280;68528;48.814;8.904;2023-04-24T10:16:00;95739.91;;;11.82;49.93
79127;BME280;68528;48.814;8.904;2023-04-24T10:18:26;95755.38;;;11.43;51.12
79127;BME280;68528;48.814;8.904;2023-04-24T10:20:53;95757.22;;;11.18;50.95
79127;BME280;68528;48.814;8.904;2023-04-24T10:23:20;95762.97;;;10.98;52.07
79127;BME280;68528;48.814;8.904;2023-04-24T10:25:48;95757.59;;;11.16;52.29
79127;BME280;68528;48.814;8.904;2023-04-24T10:28:15;95751.38;;;11.23;53.33
79127;BME280;68528;48.814;8.904;2023-04-24T10:30:42;95767.09;;;11.33;51.19
79127;BME280;68528;48.814;8.904;2023-04-24T10:33:08;95770.16;;;11.24;52.32
79127;BME280;68528;48.814;8.904;2023-04-24T10:35:39;95763.03;;;11.09;51.38
79127;BME280;68528;48.814;8.904;2023-04-24T10:38:26;95772.38;;;10.97;52.53
79127;BME280;68528;48.814;8.904;2023-04-24T10:41:09;95778.34;;;10.63;53.12
79127;BME280;68528;48.814;8.904;2023-04-24T10:43:39;95778.34;;;10.59;53.13
79127;BME280;68528;48.814;8.904;2023-04-24T10:46:07;95784.44;;;10.39;54.25
79127;BME280;68528;48.814;8.904;2023-04-24T10:48:35;95786.97;;;10.17;54.73
79127;BME280;68528;48.814;8.904;2023-04-24T10:51:11;95790.56;;;9.92;56.16
79127;BME280;68528;48.814;8.904;2023-04-24T10:53:38;95796.22;;;9.73;56.84
79127;BME280;68528;48.814;8.904;2023-04-24T10:56:26;95794.63;;;9.72;57.50
79127;BME280;68528;48.814;8.904;2023-04-24T10:58:53;95800.31;;;9.89;57.38
79127;BME280;68528;48.814;8.904;2023-04-24T11:01:26;95798.34;;;10.23;57.20
79127;BME280;68528;48.814;8.904;2023-04-24T11:04:02;95791.69;;;10.64;55.52
79127;BME280;68528;48.814;8.904;2023-04-24T11:06:37;95786.47;;;10.99;54.71
79127;BME280;68528;48.814;8.904;2023-04-24T11:09:08;95793.16;;;11.74;53.30
79127;BME280;68528;48.814;8.904;2023-04-24T11:15:16;95777.16;;;11.90;50.96
79127;BME280;68528;48.814;8.904;2023-04-24T11:18:01;95777.31;;;11.43;53.03
79127;BME280;68528;48.814;8.904;2023-04-24T11:20:27;95781.84;;;11.11;52.95
79127;BME280;68528;48.814;8.904;2023-04-24T11:22:53;95784.81;;;10.88;53.71
79127;BME280;68528;48.814;8.904;2023-04-24T11:25:23;95789.44;;;10.77;55.25
79127;BME280;68528;48.814;8.904;2023-04-24T11:27:50;95798.00;;;10.28;55.98
79127;BME280;68528;48.814;8.904;2023-04-24T11:30:20;95793.00;;;10.37;54.97
79127;BME280;68528;48.814;8.904;2023-04-24T11:36:02;95785.34;;;11.83;53.23
79127;BME280;68528;48.814;8.904;2023-04-24T11:38:28;95790.94;;;12.11;52.67
79127;BME280;68528;48.814;8.904;2023-04-24T11:40:54;95790.94;;;12.25;51.76
79127;BME280;68528;48.814;8.904;2023-04-24T11:43:23;95783.53;;;12.47;51.33
79127;BME280;68528;48.814;8.904;2023-04-24T11:45:49;95790.22;;;12.46;51.58
79127;BME280;68528;48.814;8.904;2023-04-24T11:48:21;95783.13;;;12.31;51.05
79127;BME280;68528;48.814;8.904;2023-04-24T11:51:03;95781.88;;;12.00;51.24
79127;BME280;68528;48.814;8.904;2023-04-24T11:53:30;95797.72;;;11.49;51.29
79127;BME280;68528;48.814;8.904;2023-04-24T11:55:56;95807.03;;;11.34;52.66
79127;BME280;68528;48.814;8.904;2023-04-24T11:58:22;95807.66;;;11.06;52.67
79127;BME280;68528;48.814;8.904;2023-04-24T12:00:55;95810.56;;;10.76;52.16
79127;BME280;68528;48.814;8.904;2023-04-24T12:03:22;95815.25;;;10.76;53.56
79127;BME280;68528;48.814;8.904;2023-04-24T12:05:47;95816.03;;;10.76;52.67
79127;BME280;68528;48.814;8.904;2023-04-24T12:08:27;95814.91;;;10.84;52.00
79127;BME280;68528;48.814;8.904;2023-04-24T12:11:31;95818.38;;;10.74;52.97
79127;BME280;68528;48.814;8.904;2023-04-24T12:14:09;95818.00;;;10.79;54.12
79127;BME280;68528;48.814;8.904;2023-04-24T12:17:10;95820.13;;;11.00;54.21
79127;BME280;68528;48.814;8.904;2023-04-24T12:20:00;95821.91;;;11.33;53.45
79127;BME280;68528;48.814;8.904;2023-04-24T12:22:26;95815.00;;;11.60;52.39
79127;BME280;68528;48.814;8.904;2023-04-24T12:25:04;95831.16;;;11.72;51.69
79127;BME280;68528;48.814;8.904;2023-04-24T12:27:32;95821.03;;;11.15;51.97
79127;BME280;68528;48.814;8.904;2023-04-24T12:30:26;95821.72;;;11.04;53.74
79127;BME280;68528;48.814;8.904;2023-04-24T12:32:53;95847.31;;;10.75;55.60
79127;BME280;68528;48.814;8.904;2023-04-24T12:35:22;95843.13;;;10.45;61.37
79127;BME280;68528;48.814;8.904;2023-04-24T12:37:48;95865.34;;;10.03;65.04
79127;BME280;68528;48.814;8.904;2023-04-24T12:40:15;95860.28;;;10.05;66.99
79127;BME280;68528;48.814;8.904;2023-04-24T12:42:48;95861.19;;;10.16;66.21
79127;BME280;68528;48.814;8.904;2023-04-24T12:45:15;95853.59;;;10.36;65.08
79127;BME280;68528;48.814;8.904;2023-04-24T12:47:56;95854.72;;;10.31;63.66
79127;BME280;68528;48.814;8.904;2023-04-24T12:50:25;95844.34;;;10.51;63.74
79127;BME280;68528;48.814;8.904;2023-04-24T12:52:52;95836.31;;;10.68;62.60
79127;BME280;68528;48.814;8.904;2023-04-24T12:55:18;95832.47;;;10.76;61.74
79127;BME280;68528;48.814;8.904;2023-04-24T12:57:43;95832.50;;;10.83;60.66
79127;BME280;68528;48.814;8.904;2023-04-24T13:00:09;95828.94;;;11.30;60.99
79127;BME280;68528;48.814;8.904;2023-04-24T13:02:34;95813.53;;;11.69;56.40
79127;BME280;68528;48.814;8.904;2023-04-24T13:05:01;95836.34;;;11.95;57.14
79127;BME280;68528;48.814;8.904;2023-04-24T13:07:28;95836.44;;;12.23;55.41
79127;BME280;68528;48.814;8.904;2023-04-24T13:09:54;95830.16;;;12.12;55.33
79127;BME280;68528;48.814;8.904;2023-04-24T13:12:21;95830.88;;;11.95;55.88
79127;BME280;68528;48.814;8.904;2023-04-24T13:15:06;95841.22;;;11.54;57.99
79127;BME280;68528;48.814;8.904;2023-04-24T13:17:32;95844.00;;;11.61;57.66
79127;BME280;68528;48.814;8.904;2023-04-24T13:19:58;95849.78;;;11.42;56.88
79127;BME280;68528;48.814;8.904;2023-04-24T13:22:27;95844.53;;;11.19;56.83
79127;BME280;68528;48.814;8.904;2023-04-24T13:24:54;95853.81;;;11.04;58.18
79127;BME280;68528;48.814;8.904;2023-04-24T13:27:22;95855.94;;;10.77;60.45
79127;BME280;68528;48.814;8.904;2023-04-24T13:29:48;95855.84;;;10.67;59.40
79127;BME280;68528;48.814;8.904;2023-04-24T13:32:13;95854.97;;;10.56;60.29
79127;BME280;68528;48.814;8.904;2023-04-24T13:34:39;95855.06;;;10.66;60.97
79127;BME280;68528;48.814;8.904;2023-04-24T13:37:04;95850.19;;;10.89;59.84
79127;BME280;68528;48.814;8.904;2023-04-24T13:39:30;95848.91;;;11.31;59.41
79127;BME280;68528;48.814;8.904;2023-04-24T13:41:58;95849.94;;;11.09;59.22
79127;BME280;68528;48.814;8.904;2023-04-24T13:44:24;95853.19;;;11.25;59.90
79127;BME280;68528;48.814;8.904;2023-04-24T13:46:51;95852.63;;;11.63;58.24
79127;BME280;68528;48.814;8.904;2023-04-24T13:49:19;95859.19;;;11.44;57.34
79127;BME280;68528;48.814;8.904;2023-04-24T13:51:45;95849.25;;;11.87;58.57
79127;BME280;68528;48.814;8.904;2023-04-24T13:54:11;95853.94;;;11.83;56.56
79127;BME280;68528;48.814;8.904;2023-04-24T13:56:36;95853.66;;;12.06;55.16
79127;BME280;68528;48.814;8.904;2023-04-24T13:59:02;95847.00;;;12.17;56.03
79127;BME280;68528;48.814;8.904;2023-04-24T14:04:25;95844.41;;;11.63;56.73
79127;BME280;68528;48.814;8.904;2023-04-24T14:06:50;95840.75;;;11.41;55.71
79127;BME280;68528;48.814;8.904;2023-04-24T14:09:16;95845.44;;;11.41;56.23